sensor_id;sensor_type;location;lat;lon;timestamp;pressure;altitude;pressure_sealevel;temperature;humidity
76611;BME280;65503;48.534;9.062;2022-11-27T00:01:50;98170.25;;;3.88;71.34
76611;BME280;65503;48.534;9.062;2022-11-27T00:04:16;98162.38;;;3.72;71.11
76611;BME280;65503;48.534;9.062;2022-11-27T00:06:43;98166.13;;;3.78;71.69
76611;BME280;65503;48.534;9.062;2022-11-27T00:09:27;98166.94;;;3.70;71.39
76611;BME280;65503;48.534;9.062;2022-11-27T00:24:35;98145.13;;;3.63;72.09
76611;BME280;65503;48.534;9.062;2022-11-27T00:27:21;98137.66;;;3.68;71.69
76611;BME280;65503;48.534;9.062;2022-11-27T00:29:49;98134.28;;;3.76;71.68
76611;BME280;65503;48.534;9.062;2022-11-27T00:32:47;98135.25;;;3.83;71.17
76611;BME280;65503;48.534;9.062;2022-11-27T00:35:34;98134.44;;;3.82;71.16
76611;BME280;65503;48.534;9.062;2022-11-27T00:38:14;98133.44;;;3.75;71.18
76611;BME280;65503;48.534;9.062;2022-11-27T00:40:41;98117.50;;;3.78;70.74
76611;BME280;65503;48.534;9.062;2022-11-27T00:43:08;98122.03;;;3.68;71.28
76611;BME280;65503;48.534;9.062;2022-11-27T00:45:35;98121.53;;;3.64;71.70
76611;BME280;65503;48.534;9.062;2022-11-27T00:48:02;98110.66;;;3.69;71.65
76611;BME280;65503;48.534;9.062;2022-11-27T00:50:30;98102.03;;;3.68;71.18
76611;BME280;65503;48.534;9.062;2022-11-27T00:52:59;98088.88;;;3.70;71.91
76611;BME280;65503;48.534;9.062;2022-11-27T00:55:26;98093.41;;;3.76;71.58
76611;BME280;65503;48.534;9.062;2022-11-27T00:57:53;98091.47;;;3.78;71.56
76611;BME280;65503;48.534;9.062;2022-11-27T01:00:19;98083.19;;;3.83;71.49
76611;BME280;65503;48.534;9.062;2022-11-27T01:02:47;98074.41;;;3.84;71.77
76611;BME280;65503;48.534;9.062;2022-11-27T01:05:15;98079.47;;;3.93;71.87
76611;BME280;65503;48.534;9.062;2022-11-27T01:07:53;98066.13;;;3.88;71.38
76611;BME280;65503;48.534;9.062;2022-11-27T01:10:30;98063.34;;;3.90;71.39
76611;BME280;65503;48.534;9.062;2022-11-27T01:13:03;98063.84;;;3.93;71.41
76611;BME280;65503;48.534;9.062;2022-11-27T01:23:36;98060.56;;;3.75;71.26
76611;BME280;65503;48.534;9.062;2022-11-27T01:29:49;98049.47;;;3.65;71.29
76611;BME280;65503;48.534;9.062;2022-11-27T01:32:52;98057.28;;;3.57;71.14
76611;BME280;65503;48.534;9.062;2022-11-27T01:36:14;98043.28;;;3.58;71.98
76611;BME280;65503;48.534;9.062;2022-11-27T01:38:45;98042.97;;;3.61;71.43
76611;BME280;65503;48.534;9.062;2022-11-27T01:41:21;98041.03;;;3.63;71.53
76611;BME280;65503;48.534;9.062;2022-11-27T01:43:50;98042.03;;;3.70;70.54
76611;BME280;65503;48.534;9.062;2022-11-27T01:49:19;98029.66;;;3.64;70.23
76611;BME280;65503;48.534;9.062;2022-11-27T01:51:54;98020.66;;;3.50;70.85
76611;BME280;65503;48.534;9.062;2022-11-27T01:54:26;98021.00;;;3.47;70.95
76611;BME280;65503;48.534;9.062;2022-11-27T01:57:03;98023.69;;;3.38;71.12
76611;BME280;65503;48.534;9.062;2022-11-27T01:59:32;98024.03;;;3.43;71.24
76611;BME280;65503;48.534;9.062;2022-11-27T02:02:00;98028.44;;;3.42;71.19
76611;BME280;65503;48.534;9.062;2022-11-27T02:04:29;98036.09;;;3.44;71.52
76611;BME280;65503;48.534;9.062;2022-11-27T02:06:57;98025.53;;;3.53;70.25
76611;BME280;65503;48.534;9.062;2022-11-27T02:09:26;98021.44;;;3.35;70.93
76611;BME280;65503;48.534;9.062;2022-11-27T02:12:17;98023.38;;;3.32;70.82
76611;BME280;65503;48.534;9.062;2022-11-27T02:15:02;98019.78;;;3.33;70.94
76611;BME280;65503;48.534;9.062;2022-11-27T02:17:46;98019.13;;;3.23;70.84
76611;BME280;65503;48.534;9.062;2022-11-27T02:20:39;98023.50;;;3.23;70.52
76611;BME280;65503;48.534;9.062;2022-11-27T02:28:30;98010.50;;;3.31;70.84
76611;BME280;65503;48.534;9.062;2022-11-27T02:34:03;98011.94;;;3.17;71.16
76611;BME280;65503;48.534;9.062;2022-11-27T02:36:36;98014.53;;;3.17;70.69
76611;BME280;65503;48.534;9.062;2022-11-27T02:39:08;98016.53;;;3.31;70.44
76611;BME280;65503;48.534;9.062;2022-11-27T02:42:01;98008.38;;;3.18;70.65
76611;BME280;65503;48.534;9.062;2022-11-27T02:44:32;98005.44;;;3.21;70.20
76611;BME280;65503;48.534;9.062;2022-11-27T02:47:04;98013.88;;;3.15;70.86
76611;BME280;65503;48.534;9.062;2022-11-27T02:49:32;98013.06;;;3.15;70.87
76611;BME280;65503;48.534;9.062;2022-11-27T02:52:02;98008.09;;;3.29;70.72
76611;BME280;65503;48.534;9.062;2022-11-27T02:54:30;98007.84;;;3.15;71.45
76611;BME280;65503;48.534;9.062;2022-11-27T02:57:09;98007.91;;;3.23;70.20
76611;BME280;65503;48.534;9.062;2022-11-27T02:59:44;98009.00;;;3.20;70.75
76611;BME280;65503;48.534;9.062;2022-11-27T03:02:17;98009.97;;;3.19;70.37
76611;BME280;65503;48.534;9.062;2022-11-27T03:04:49;98006.59;;;3.19;70.60
76611;BME280;65503;48.534;9.062;2022-11-27T03:07:25;98001.72;;;3.24;70.83
76611;BME280;65503;48.534;9.062;2022-11-27T03:09:58;97995.53;;;3.25;70.83
76611;BME280;65503;48.534;9.062;2022-11-27T03:12:28;97984.97;;;3.18;71.73
76611;BME280;65503;48.534;9.062;2022-11-27T03:14:55;97992.78;;;3.26;71.20
76611;BME280;65503;48.534;9.062;2022-11-27T03:20:20;98001.91;;;3.30;71.18
76611;BME280;65503;48.534;9.062;2022-11-27T03:22:47;97989.56;;;3.32;71.25
76611;BME280;65503;48.534;9.062;2022-11-27T03:25:14;97979.97;;;3.33;71.10
76611;BME280;65503;48.534;9.062;2022-11-27T03:27:47;97986.16;;;3.48;71.12
76611;BME280;65503;48.534;9.062;2022-11-27T03:30:15;97973.66;;;3.44;70.44
76611;BME280;65503;48.534;9.062;2022-11-27T03:32:41;97974.63;;;3.35;70.81
76611;BME280;65503;48.534;9.062;2022-11-27T03:35:10;97977.84;;;3.37;71.41
76611;BME280;65503;48.534;9.062;2022-11-27T03:37:38;97972.66;;;3.37;70.96
76611;BME280;65503;48.534;9.062;2022-11-27T03:40:50;97976.41;;;3.42;71.02
76611;BME280;65503;48.534;9.062;2022-11-27T03:53:36;97980.63;;;3.35;70.88
76611;BME280;65503;48.534;9.062;2022-11-27T03:56:30;97977.84;;;3.37;70.81
76611;BME280;65503;48.534;9.062;2022-11-27T03:59:14;97969.41;;;3.43;70.47
76611;BME280;65503;48.534;9.062;2022-11-27T04:01:48;97968.44;;;3.44;70.40
76611;BME280;65503;48.534;9.062;2022-11-27T04:04:19;97987.97;;;3.40;70.68
76611;BME280;65503;48.534;9.062;2022-11-27T04:06:48;97967.63;;;3.43;70.02
76611;BME280;65503;48.534;9.062;2022-11-27T04:09:15;97961.56;;;3.26;70.78
76611;BME280;65503;48.534;9.062;2022-11-27T04:11:42;97967.41;;;3.20;70.65
76611;BME280;65503;48.534;9.062;2022-11-27T04:14:09;97966.94;;;3.17;70.77
76611;BME280;65503;48.534;9.062;2022-11-27T04:16:36;97966.28;;;3.23;70.84
76611;BME280;65503;48.534;9.062;2022-11-27T04:19:03;97960.47;;;3.29;70.60
76611;BME280;65503;48.534;9.062;2022-11-27T04:21:38;97963.84;;;3.21;71.27
76611;BME280;65503;48.534;9.062;2022-11-27T04:24:16;97955.91;;;3.23;70.89
76611;BME280;65503;48.534;9.062;2022-11-27T04:26:43;97954.44;;;3.28;70.79
76611;BME280;65503;48.534;9.062;2022-11-27T04:29:10;97950.53;;;3.32;70.50
76611;BME280;65503;48.534;9.062;2022-11-27T04:31:36;97947.94;;;3.32;71.25
76611;BME280;65503;48.534;9.062;2022-11-27T04:34:10;97940.13;;;3.32;69.90
76611;BME280;65503;48.534;9.062;2022-11-27T04:36:38;97938.84;;;3.28;70.48
76611;BME280;65503;48.534;9.062;2022-11-27T04:39:15;97941.41;;;3.20;70.52
76611;BME280;65503;48.534;9.062;2022-11-27T04:41:46;97936.84;;;3.14;70.40
76611;BME280;65503;48.534;9.062;2022-11-27T04:44:22;97938.47;;;3.15;70.89
76611;BME280;65503;48.534;9.062;2022-11-27T04:46:49;97923.50;;;3.09;70.16
76611;BME280;65503;48.534;9.062;2022-11-27T04:49:21;97935.22;;;3.13;70.85
76611;BME280;65503;48.534;9.062;2022-11-27T04:51:47;97919.59;;;3.13;70.39
76611;BME280;65503;48.534;9.062;2022-11-27T04:54:21;97923.03;;;3.14;70.84
76611;BME280;65503;48.534;9.062;2022-11-27T04:56:50;97922.53;;;3.10;70.42
76611;BME280;65503;48.534;9.062;2022-11-27T04:59:23;97915.72;;;3.09;70.43
76611;BME280;65503;48.534;9.062;2022-11-27T05:01:53;97918.63;;;3.06;69.98
76611;BME280;65503;48.534;9.062;2022-11-27T05:04:30;97905.94;;;3.03;70.25
76611;BME280;65503;48.534;9.062;2022-11-27T05:06:58;97903.34;;;3.03;70.45
76611;BME280;65503;48.534;9.062;2022-11-27T05:09:28;97915.38;;;3.04;70.69
76611;BME280;65503;48.534;9.062;2022-11-27T05:11:55;97916.19;;;3.05;70.46
76611;BME280;65503;48.534;9.062;2022-11-27T05:14:21;97917.00;;;3.05;70.18
76611;BME280;65503;48.534;9.062;2022-11-27T05:16:56;97914.06;;;3.08;69.77
76611;BME280;65503;48.534;9.062;2022-11-27T05:19:27;97916.66;;;3.00;70.41
76611;BME280;65503;48.534;9.062;2022-11-27T05:22:04;97913.56;;;2.97;71.09
76611;BME280;65503;48.534;9.062;2022-11-27T05:24:35;97921.72;;;3.02;70.19
76611;BME280;65503;48.534;9.062;2022-11-27T05:27:02;97918.94;;;3.03;70.61
76611;BME280;65503;48.534;9.062;2022-11-27T05:29:29;97919.44;;;3.07;70.90
76611;BME280;65503;48.534;9.062;2022-11-27T05:31:55;97924.75;;;2.97;70.76
76611;BME280;65503;48.534;9.062;2022-11-27T05:34:23;97927.03;;;2.92;70.80
76611;BME280;65503;48.534;9.062;2022-11-27T05:36:49;97920.81;;;2.85;70.79
76611;BME280;65503;48.534;9.062;2022-11-27T05:39:16;97919.66;;;2.71;70.12
76611;BME280;65503;48.534;9.062;2022-11-27T05:41:42;97912.97;;;2.61;70.56
76611;BME280;65503;48.534;9.062;2022-11-27T05:44:13;97910.00;;;2.56;71.18
76611;BME280;65503;48.534;9.062;2022-11-27T05:46:40;97909.03;;;2.57;70.77
76611;BME280;65503;48.534;9.062;2022-11-27T05:49:13;97901.22;;;2.57;70.95
76611;BME280;65503;48.534;9.062;2022-11-27T05:51:40;97910.00;;;2.56;70.77
76611;BME280;65503;48.534;9.062;2022-11-27T05:54:16;97908.38;;;2.55;69.99
76611;BME280;65503;48.534;9.062;2022-11-27T05:56:42;97920.19;;;2.49;70.53
76611;BME280;65503;48.534;9.062;2022-11-27T05:59:09;97927.84;;;2.51;70.92
76611;BME280;65503;48.534;9.062;2022-11-27T06:01:36;97932.72;;;2.54;70.77
76611;BME280;65503;48.534;9.062;2022-11-27T06:04:03;97922.34;;;2.54;71.00
76611;BME280;65503;48.534;9.062;2022-11-27T06:06:29;97912.91;;;2.53;70.97
76611;BME280;65503;48.534;9.062;2022-11-27T06:08:56;97910.31;;;2.53;71.21
76611;BME280;65503;48.534;9.062;2022-11-27T06:11:22;97917.19;;;2.70;69.47
76611;BME280;65503;48.534;9.062;2022-11-27T06:13:49;97925.69;;;2.46;70.61
76611;BME280;65503;48.534;9.062;2022-11-27T06:16:21;97930.59;;;2.49;70.60
76611;BME280;65503;48.534;9.062;2022-11-27T06:18:52;97932.22;;;2.50;70.00
76611;BME280;65503;48.534;9.062;2022-11-27T06:21:21;97923.44;;;2.51;70.50
76611;BME280;65503;48.534;9.062;2022-11-27T06:23:48;97925.53;;;2.47;70.61
76611;BME280;65503;48.534;9.062;2022-11-27T06:26:21;97930.06;;;2.45;70.66
76611;BME280;65503;48.534;9.062;2022-11-27T06:28:48;97915.16;;;2.47;70.81
76611;BME280;65503;48.534;9.062;2022-11-27T06:31:18;97912.91;;;2.53;70.42
76611;BME280;65503;48.534;9.062;2022-11-27T06:33:46;97925.88;;;2.44;69.88
76611;BME280;65503;48.534;9.062;2022-11-27T06:36:13;97931.00;;;2.36;70.10
76611;BME280;65503;48.534;9.062;2022-11-27T06:38:40;97939.16;;;2.41;70.62
76611;BME280;65503;48.534;9.062;2022-11-27T06:41:12;97942.41;;;2.43;69.83
76611;BME280;65503;48.534;9.062;2022-11-27T06:43:39;97944.66;;;2.38;69.99
76611;BME280;65503;48.534;9.062;2022-11-27T06:46:08;97940.09;;;2.32;70.11
76611;BME280;65503;48.534;9.062;2022-11-27T06:48:38;97936.13;;;2.28;70.00
76611;BME280;65503;48.534;9.062;2022-11-27T06:51:06;97932.44;;;2.31;69.73
76611;BME280;65503;48.534;9.062;2022-11-27T06:53:35;97922.88;;;2.31;70.21
76611;BME280;65503;48.534;9.062;2022-11-27T06:56:06;97917.69;;;2.31;70.05
76611;BME280;65503;48.534;9.062;2022-11-27T06:58:34;97904.84;;;2.30;70.38
76611;BME280;65503;48.534;9.062;2022-11-27T07:01:03;97909.22;;;2.29;70.25
76611;BME280;65503;48.534;9.062;2022-11-27T07:03:30;97897.81;;;2.22;70.31
76611;BME280;65503;48.534;9.062;2022-11-27T07:06:01;97898.81;;;2.21;70.01
76611;BME280;65503;48.534;9.062;2022-11-27T07:08:28;97894.56;;;2.20;70.23
76611;BME280;65503;48.534;9.062;2022-11-27T07:11:06;97892.63;;;2.22;69.78
76611;BME280;65503;48.534;9.062;2022-11-27T07:13:33;97886.50;;;2.31;69.86
76611;BME280;65503;48.534;9.062;2022-11-27T07:16:05;97887.56;;;2.46;70.01
76611;BME280;65503;48.534;9.062;2022-11-27T07:18:38;97886.66;;;2.64;70.27
76611;BME280;65503;48.534;9.062;2022-11-27T07:21:06;97886.06;;;2.86;70.23
76611;BME280;65503;48.534;9.062;2022-11-27T07:23:32;97892.63;;;3.06;70.89
76611;BME280;65503;48.534;9.062;2022-11-27T07:26:04;97887.47;;;3.22;70.04
76611;BME280;65503;48.534;9.062;2022-11-27T07:28:31;97891.06;;;3.29;69.99
76611;BME280;65503;48.534;9.062;2022-11-27T07:30:58;97880.97;;;3.35;69.92
76611;BME280;65503;48.534;9.062;2022-11-27T07:33:25;97885.34;;;3.42;69.74
76611;BME280;65503;48.534;9.062;2022-11-27T07:35:59;97882.94;;;3.49;69.84
76611;BME280;65503;48.534;9.062;2022-11-27T07:38:26;97871.22;;;3.45;69.40
76611;BME280;65503;48.534;9.062;2022-11-27T07:40:53;97862.75;;;3.43;69.53
76611;BME280;65503;48.534;9.062;2022-11-27T07:43:19;97863.28;;;3.46;69.48
76611;BME280;65503;48.534;9.062;2022-11-27T07:45:46;97849.13;;;3.49;69.80
76611;BME280;65503;48.534;9.062;2022-11-27T07:48:12;97852.03;;;3.62;69.42
76611;BME280;65503;48.534;9.062;2022-11-27T07:50:39;97849.44;;;3.70;68.64
76611;BME280;65503;48.534;9.062;2022-11-27T07:53:05;97840.63;;;3.71;69.20
76611;BME280;65503;48.534;9.062;2022-11-27T07:55:32;97840.63;;;3.71;68.90
76611;BME280;65503;48.534;9.062;2022-11-27T07:57:58;97845.81;;;3.95;69.34
76611;BME280;65503;48.534;9.062;2022-11-27T08:00:24;97837.44;;;4.16;68.41
76611;BME280;65503;48.534;9.062;2022-11-27T08:02:51;97838.19;;;4.41;68.06
76611;BME280;65503;48.534;9.062;2022-11-27T08:05:17;97824.56;;;4.62;67.44
76611;BME280;65503;48.534;9.062;2022-11-27T08:07:44;97835.38;;;4.89;67.92
76611;BME280;65503;48.534;9.062;2022-11-27T08:10:10;97843.09;;;5.06;67.88
76611;BME280;65503;48.534;9.062;2022-11-27T08:12:37;97837.75;;;5.22;67.95
76611;BME280;65503;48.534;9.062;2022-11-27T08:15:04;97836.28;;;5.42;67.21
76611;BME280;65503;48.534;9.062;2022-11-27T08:17:30;97834.59;;;5.49;66.95
76611;BME280;65503;48.534;9.062;2022-11-27T08:19:59;97839.50;;;5.52;66.53
76611;BME280;65503;48.534;9.062;2022-11-27T08:22:26;97830.63;;;5.53;65.41
76611;BME280;65503;48.534;9.062;2022-11-27T08:24:52;97839.44;;;5.98;66.17
76611;BME280;65503;48.534;9.062;2022-11-27T08:27:19;97839.59;;;6.40;65.20
76611;BME280;65503;48.534;9.062;2022-11-27T08:29:46;97833.13;;;6.87;63.92
76611;BME280;65503;48.534;9.062;2022-11-27T08:32:13;97835.91;;;7.00;62.77
76611;BME280;65503;48.534;9.062;2022-11-27T08:34:39;97838.31;;;6.66;63.76
76611;BME280;65503;48.534;9.062;2022-11-27T08:37:06;97829.88;;;6.34;63.17
76611;BME280;65503;48.534;9.062;2022-11-27T08:39:33;97823.00;;;6.04;63.01
76611;BME280;65503;48.534;9.062;2022-11-27T08:41:59;97825.47;;;5.82;63.21
76611;BME280;65503;48.534;9.062;2022-11-27T08:44:26;97826.91;;;5.70;63.27
76611;BME280;65503;48.534;9.062;2022-11-27T08:46:52;97821.44;;;5.80;63.23
76611;BME280;65503;48.534;9.062;2022-11-27T08:49:19;97822.66;;;6.36;62.71
76611;BME280;65503;48.534;9.062;2022-11-27T08:51:45;97822.66;;;6.87;60.39
76611;BME280;65503;48.534;9.062;2022-11-27T08:54:12;97822.94;;;7.13;59.68
76611;BME280;65503;48.534;9.062;2022-11-27T08:56:38;97817.19;;;7.24;58.24
76611;BME280;65503;48.534;9.062;2022-11-27T08:59:05;97827.75;;;7.31;59.98
76611;BME280;65503;48.534;9.062;2022-11-27T09:01:31;97827.81;;;7.37;60.20
76611;BME280;65503;48.534;9.062;2022-11-27T09:03:58;97832.66;;;7.40;59.19
76611;BME280;65503;48.534;9.062;2022-11-27T09:06:28;97814.84;;;7.29;59.02
76611;BME280;65503;48.534;9.062;2022-11-27T09:08:55;97817.59;;;7.21;60.00
76611;BME280;65503;48.534;9.062;2022-11-27T09:11:22;97807.97;;;7.50;61.63
76611;BME280;65503;48.534;9.062;2022-11-27T09:13:49;97802.63;;;8.26;58.80
76611;BME280;65503;48.534;9.062;2022-11-27T09:16:20;97799.06;;;8.75;58.10
76611;BME280;65503;48.534;9.062;2022-11-27T09:18:49;97795.56;;;9.55;55.37
76611;BME280;65503;48.534;9.062;2022-11-27T09:21:16;97790.88;;;9.90;53.48
76611;BME280;65503;48.534;9.062;2022-11-27T09:23:43;97785.44;;;9.78;54.27
76611;BME280;65503;48.534;9.062;2022-11-27T09:26:12;97790.06;;;9.63;52.38
76611;BME280;65503;48.534;9.062;2022-11-27T09:28:40;97782.97;;;9.18;52.67
76611;BME280;65503;48.534;9.062;2022-11-27T09:31:09;97791.88;;;9.03;53.48
76611;BME280;65503;48.534;9.062;2022-11-27T09:33:38;97788.38;;;8.83;54.73
76611;BME280;65503;48.534;9.062;2022-11-27T09:36:14;97784.75;;;8.84;55.05
76611;BME280;65503;48.534;9.062;2022-11-27T09:38:41;97783.53;;;8.80;55.72
76611;BME280;65503;48.534;9.062;2022-11-27T09:43:44;97782.63;;;8.53;56.60
76611;BME280;65503;48.534;9.062;2022-11-27T09:46:23;97786.53;;;8.70;55.73
76611;BME280;65503;48.534;9.062;2022-11-27T09:48:52;97782.31;;;8.89;54.83
76611;BME280;65503;48.534;9.062;2022-11-27T09:53:55;97783.19;;;9.23;54.75
76611;BME280;65503;48.534;9.062;2022-11-27T09:56:23;97784.22;;;9.35;55.51
76611;BME280;65503;48.534;9.062;2022-11-27T09:58:57;97767.47;;;9.49;53.99
76611;BME280;65503;48.534;9.062;2022-11-27T10:01:29;97761.78;;;9.26;54.18
76611;BME280;65503;48.534;9.062;2022-11-27T10:04:13;97750.66;;;8.97;55.97
76611;BME280;65503;48.534;9.062;2022-11-27T10:12:16;97742.81;;;9.50;56.31
76611;BME280;65503;48.534;9.062;2022-11-27T10:15:22;97743.31;;;10.05;53.46
76611;BME280;65503;48.534;9.062;2022-11-27T10:17:47;97743.88;;;10.26;53.17
76611;BME280;65503;48.534;9.062;2022-11-27T10:20:42;97734.63;;;9.98;52.55
76611;BME280;65503;48.534;9.062;2022-11-27T10:24:01;97727.06;;;9.37;53.14
76611;BME280;65503;48.534;9.062;2022-11-27T10:26:30;97724.78;;;8.94;54.87
76611;BME280;65503;48.534;9.062;2022-11-27T10:31:48;97713.66;;;8.66;57.03
76611;BME280;65503;48.534;9.062;2022-11-27T10:37:10;97711.25;;;8.71;57.24
76611;BME280;65503;48.534;9.062;2022-11-27T10:40:35;97707.47;;;9.20;56.32
76611;BME280;65503;48.534;9.062;2022-11-27T10:42:59;97700.09;;;9.74;54.52
76611;BME280;65503;48.534;9.062;2022-11-27T10:45:39;97688.78;;;10.38;52.46
76611;BME280;65503;48.534;9.062;2022-11-27T10:48:10;97686.50;;;10.86;51.25
76611;BME280;65503;48.534;9.062;2022-11-27T10:50:38;97687.63;;;10.97;50.73
76611;BME280;65503;48.534;9.062;2022-11-27T10:53:10;97687.63;;;10.97;51.52
76611;BME280;65503;48.534;9.062;2022-11-27T10:58:32;97667.78;;;11.44;50.49
76611;BME280;65503;48.534;9.062;2022-11-27T11:01:08;97663.47;;;11.68;49.50
76611;BME280;65503;48.534;9.062;2022-11-27T11:03:35;97664.38;;;11.62;50.73
76611;BME280;65503;48.534;9.062;2022-11-27T11:06:28;97656.94;;;11.77;49.51
76611;BME280;65503;48.534;9.062;2022-11-27T11:09:02;97660.38;;;11.52;50.25
76611;BME280;65503;48.534;9.062;2022-11-27T11:11:29;97657.41;;;11.24;50.72
76611;BME280;65503;48.534;9.062;2022-11-27T11:13:55;97649.09;;;11.02;50.72
76611;BME280;65503;48.534;9.062;2022-11-27T11:16:24;97646.88;;;10.74;51.74
76611;BME280;65503;48.534;9.062;2022-11-27T11:19:00;97644.22;;;10.43;53.09
76611;BME280;65503;48.534;9.062;2022-11-27T11:21:31;97635.09;;;10.52;52.67
76611;BME280;65503;48.534;9.062;2022-11-27T11:24:04;97621.34;;;10.50;53.28
76611;BME280;65503;48.534;9.062;2022-11-27T11:26:38;97618.09;;;10.48;53.22
76611;BME280;65503;48.534;9.062;2022-11-27T11:29:36;97623.84;;;10.70;52.72
76611;BME280;65503;48.534;9.062;2022-11-27T11:32:05;97612.38;;;10.83;51.91
76611;BME280;65503;48.534;9.062;2022-11-27T11:34:33;97596.84;;;10.99;52.87
76611;BME280;65503;48.534;9.062;2022-11-27T11:37:02;97593.88;;;11.14;52.46
76611;BME280;65503;48.534;9.062;2022-11-27T11:42:54;97573.56;;;11.57;50.99
76611;BME280;65503;48.534;9.062;2022-11-27T11:45:22;97569.75;;;11.53;49.99
76611;BME280;65503;48.534;9.062;2022-11-27T11:47:56;97565.09;;;11.55;50.48
76611;BME280;65503;48.534;9.062;2022-11-27T11:50:28;97557.91;;;11.44;50.80
76611;BME280;65503;48.534;9.062;2022-11-27T11:53:29;97571.81;;;11.33;50.19
76611;BME280;65503;48.534;9.062;2022-11-27T11:59:10;97552.13;;;10.74;51.99
76611;BME280;65503;48.534;9.062;2022-11-27T12:04:53;97550.88;;;10.52;52.79
76611;BME280;65503;48.534;9.062;2022-11-27T12:16:24;97532.41;;;11.02;52.21
76611;BME280;65503;48.534;9.062;2022-11-27T12:22:08;97521.31;;;11.54;51.04
76611;BME280;65503;48.534;9.062;2022-11-27T12:28:02;97519.16;;;11.63;50.45
76611;BME280;65503;48.534;9.062;2022-11-27T12:33:42;97523.34;;;11.52;51.13
76611;BME280;65503;48.534;9.062;2022-11-27T12:47:30;97508.41;;;11.46;50.83
76611;BME280;65503;48.534;9.062;2022-11-27T12:50:19;97508.13;;;11.36;51.42
76611;BME280;65503;48.534;9.062;2022-11-27T12:52:54;97510.91;;;11.41;51.32
76611;BME280;65503;48.534;9.062;2022-11-27T12:55:25;97499.22;;;11.37;51.38
76611;BME280;65503;48.534;9.062;2022-11-27T12:58:04;97495.41;;;11.15;51.82
76611;BME280;65503;48.534;9.062;2022-11-27T13:00:36;97483.34;;;11.07;51.94
76611;BME280;65503;48.534;9.062;2022-11-27T13:08:21;97471.41;;;11.23;49.99
76611;BME280;65503;48.534;9.062;2022-11-27T13:10:55;97469.50;;;11.12;48.42
76611;BME280;65503;48.534;9.062;2022-11-27T13:13:30;97469.97;;;11.09;47.58
76611;BME280;65503;48.534;9.062;2022-11-27T13:16:06;97472.59;;;11.09;48.48
76611;BME280;65503;48.534;9.062;2022-11-27T13:18:39;97467.03;;;10.99;49.18
76611;BME280;65503;48.534;9.062;2022-11-27T13:21:13;97465.84;;;11.13;49.87
76611;BME280;65503;48.534;9.062;2022-11-27T13:23:40;97466.31;;;11.10;49.93
76611;BME280;65503;48.534;9.062;2022-11-27T13:26:18;97459.69;;;11.01;50.57
76611;BME280;65503;48.534;9.062;2022-11-27T13:28:55;97466.38;;;11.03;50.35
76611;BME280;65503;48.534;9.062;2022-11-27T13:31:27;97463.53;;;10.87;51.66
76611;BME280;65503;48.534;9.062;2022-11-27T13:34:04;97460.00;;;10.93;50.60
76611;BME280;65503;48.534;9.062;2022-11-27T13:36:38;97458.22;;;10.68;51.35
76611;BME280;65503;48.534;9.062;2022-11-27T13:39:05;97454.13;;;10.72;51.13
76611;BME280;65503;48.534;9.062;2022-11-27T13:41:36;97461.06;;;10.67;50.62
76611;BME280;65503;48.534;9.062;2022-11-27T13:44:24;97459.09;;;10.62;51.21
76611;BME280;65503;48.534;9.062;2022-11-27T13:46:54;97448.63;;;10.56;51.75
76611;BME280;65503;48.534;9.062;2022-11-27T13:49:30;97443.91;;;10.64;52.08
76611;BME280;65503;48.534;9.062;2022-11-27T13:52:10;97440.09;;;10.78;51.35
76611;BME280;65503;48.534;9.062;2022-11-27T13:54:37;97439.75;;;10.93;51.12
76611;BME280;65503;48.534;9.062;2022-11-27T13:57:12;97435.78;;;11.02;50.01
76611;BME280;65503;48.534;9.062;2022-11-27T13:59:40;97435.13;;;11.07;50.81
76611;BME280;65503;48.534;9.062;2022-11-27T14:02:07;97433.81;;;11.16;51.64
76611;BME280;65503;48.534;9.062;2022-11-27T14:04:34;97427.94;;;11.32;50.40
76611;BME280;65503;48.534;9.062;2022-11-27T14:07:19;97435.16;;;11.37;50.47
76611;BME280;65503;48.534;9.062;2022-11-27T14:09:50;97426.31;;;11.31;51.10
76611;BME280;65503;48.534;9.062;2022-11-27T14:12:25;97425.28;;;11.32;50.98
76611;BME280;65503;48.534;9.062;2022-11-27T14:17:43;97415.69;;;11.38;51.65
76611;BME280;65503;48.534;9.062;2022-11-27T14:25:37;97408.59;;;11.38;52.33
76611;BME280;65503;48.534;9.062;2022-11-27T14:28:19;97410.50;;;11.31;52.41
76611;BME280;65503;48.534;9.062;2022-11-27T14:30:52;97404.38;;;11.19;53.70
76611;BME280;65503;48.534;9.062;2022-11-27T14:33:24;97401.91;;;11.06;54.71
76611;BME280;65503;48.534;9.062;2022-11-27T14:36:03;97395.47;;;11.02;54.31
76611;BME280;65503;48.534;9.062;2022-11-27T14:38:31;97391.56;;;10.93;54.61
76611;BME280;65503;48.534;9.062;2022-11-27T14:41:14;97387.16;;;10.87;54.99
76611;BME280;65503;48.534;9.062;2022-11-27T14:43:41;97380.00;;;10.75;55.53
76611;BME280;65503;48.534;9.062;2022-11-27T14:46:16;97371.97;;;10.70;56.19
76611;BME280;65503;48.534;9.062;2022-11-27T14:48:49;97370.63;;;10.61;56.40
76611;BME280;65503;48.534;9.062;2022-11-27T14:51:22;97360.50;;;10.47;57.02
76611;BME280;65503;48.534;9.062;2022-11-27T14:53:53;97354.53;;;10.33;57.15
76611;BME280;65503;48.534;9.062;2022-11-27T14:56:21;97354.25;;;10.23;57.99
76611;BME280;65503;48.534;9.062;2022-11-27T14:58:53;97347.22;;;10.17;57.77
76611;BME280;65503;48.534;9.062;2022-11-27T15:01:28;97341.03;;;10.05;57.76
76611;BME280;65503;48.534;9.062;2022-11-27T15:06:23;97340.28;;;9.98;58.30
76611;BME280;65503;48.534;9.062;2022-11-27T15:08:51;97342.75;;;9.92;59.01
76611;BME280;65503;48.534;9.062;2022-11-27T15:11:38;97345.25;;;9.87;58.89
76611;BME280;65503;48.534;9.062;2022-11-27T15:14:21;97339.22;;;9.80;59.19
76611;BME280;65503;48.534;9.062;2022-11-27T15:16:49;97342.13;;;9.72;59.78
76611;BME280;65503;48.534;9.062;2022-11-27T15:19:36;97332.47;;;9.66;59.63
76611;BME280;65503;48.534;9.062;2022-11-27T15:22:03;97328.50;;;9.57;59.62
76611;BME280;65503;48.534;9.062;2022-11-27T15:24:32;97325.94;;;9.50;59.98
76611;BME280;65503;48.534;9.062;2022-11-27T15:27:16;97330.44;;;9.43;60.31
76611;BME280;65503;48.534;9.062;2022-11-27T15:32:23;97326.28;;;9.29;61.22
76611;BME280;65503;48.534;9.062;2022-11-27T15:34:51;97320.28;;;9.22;61.65
76611;BME280;65503;48.534;9.062;2022-11-27T15:37:29;97325.13;;;9.19;61.96
76611;BME280;65503;48.534;9.062;2022-11-27T15:39:59;97316.25;;;9.20;62.31